sensor_id;sensor_type;location;lat;lon;timestamp;pressure;altitude;pressure_sealevel;temperature;humidity
5283;BME280;15376;48.540;9.268;2024-01-25T00:01:17;98722.53;;;8.50;100.00
5283;BME280;15376;48.540;9.268;2024-01-25T00:03:42;98709.59;;;8.38;100.00
5283;BME280;15376;48.540;9.268;2024-01-25T00:06:08;98716.84;;;8.35;100.00
5283;BME280;15376;48.540;9.268;2024-01-25T00:08:34;98690.19;;;8.18;100.00
5283;BME280;15376;48.540;9.268;2024-01-25T00:11:01;98708.31;;;8.42;100.00
5283;BME280;15376;48.540;9.268;2024-01-25T00:13:26;98703.34;;;8.39;100.00
5283;BME280;15376;48.540;9.268;2024-01-25T00:15:52;98716.69;;;8.47;100.00
5283;BME280;15376;48.540;9.268;2024-01-25T00:18:17;98717.94;;;8.43;100.00
5283;BME280;15376;48.540;9.268;2024-01-25T00:20:42;98713.75;;;8.40;100.00
5283;BME280;15376;48.540;9.268;2024-01-25T00:23:08;98712.78;;;8.31;100.00
5283;BME280;15376;48.540;9.268;2024-01-25T00:25:33;98698.69;;;8.21;100.00
5283;BME280;15376;48.540;9.268;2024-01-25T00:27:58;98714.44;;;8.23;100.00
5283;BME280;15376;48.540;9.268;2024-01-25T00:30:24;98685.16;;;8.05;100.00
5283;BME280;15376;48.540;9.268;2024-01-25T00:32:49;98696.56;;;8.06;100.00
5283;BME280;15376;48.540;9.268;2024-01-25T00:35:15;98705.34;;;8.06;100.00
5283;BME280;15376;48.540;9.268;2024-01-25T00:37:41;98689.59;;;8.04;100.00
5283;BME280;15376;48.540;9.268;2024-01-25T00:40:07;98644.88;;;7.73;100.00
5283;BME280;15376;48.540;9.268;2024-01-25T00:42:43;98700.19;;;8.04;100.00
5283;BME280;15376;48.540;9.268;2024-01-25T00:45:09;98706.91;;;7.99;100.00
5283;BME280;15376;48.540;9.268;2024-01-25T00:47:35;98699.38;;;7.94;100.00
5283;BME280;15376;48.540;9.268;2024-01-25T00:50:01;98670.34;;;7.74;100.00
5283;BME280;15376;48.540;9.268;2024-01-25T00:52:27;98675.69;;;7.93;100.00
5283;BME280;15376;48.540;9.268;2024-01-25T00:54:52;98693.53;;;8.10;100.00
5283;BME280;15376;48.540;9.268;2024-01-25T00:57:18;98696.59;;;8.15;100.00
5283;BME280;15376;48.540;9.268;2024-01-25T00:59:43;98645.31;;;7.78;100.00
5283;BME280;15376;48.540;9.268;2024-01-25T01:02:11;98650.09;;;7.93;100.00
5283;BME280;15376;48.540;9.268;2024-01-25T01:04:37;98688.81;;;8.23;100.00
5283;BME280;15376;48.540;9.268;2024-01-25T01:07:03;98624.31;;;7.86;100.00
5283;BME280;15376;48.540;9.268;2024-01-25T01:09:29;98669.84;;;8.09;100.00
5283;BME280;15376;48.540;9.268;2024-01-25T01:11:54;98699.13;;;8.26;100.00
5283;BME280;15376;48.540;9.268;2024-01-25T01:14:20;98671.38;;;8.11;100.00
5283;BME280;15376;48.540;9.268;2024-01-25T01:16:45;98697.88;;;8.30;100.00
5283;BME280;15376;48.540;9.268;2024-01-25T01:19:10;98695.94;;;8.32;100.00
5283;BME280;15376;48.540;9.268;2024-01-25T01:21:36;98693.59;;;8.39;100.00
5283;BME280;15376;48.540;9.268;2024-01-25T01:24:02;98678.38;;;8.31;100.00
5283;BME280;15376;48.540;9.268;2024-01-25T01:26:27;98669.16;;;8.26;100.00
5283;BME280;15376;48.540;9.268;2024-01-25T01:28:53;98667.09;;;8.29;100.00
5283;BME280;15376;48.540;9.268;2024-01-25T01:31:18;98705.25;;;8.46;100.00
5283;BME280;15376;48.540;9.268;2024-01-25T01:33:43;98678.22;;;8.23;100.00
5283;BME280;15376;48.540;9.268;2024-01-25T01:36:09;98695.50;;;8.27;100.00
5283;BME280;15376;48.540;9.268;2024-01-25T01:38:34;98685.31;;;8.23;100.00
5283;BME280;15376;48.540;9.268;2024-01-25T01:40:59;98681.16;;;8.20;100.00
5283;BME280;15376;48.540;9.268;2024-01-25T01:43:25;98707.47;;;8.22;100.00
5283;BME280;15376;48.540;9.268;2024-01-25T01:45:50;98705.88;;;8.00;100.00
5283;BME280;15376;48.540;9.268;2024-01-25T01:48:18;98695.28;;;7.81;100.00
5283;BME280;15376;48.540;9.268;2024-01-25T01:50:44;98694.84;;;7.76;100.00
5283;BME280;15376;48.540;9.268;2024-01-25T01:53:10;98689.28;;;7.69;100.00
5283;BME280;15376;48.540;9.268;2024-01-25T01:55:36;98653.06;;;7.50;100.00
5283;BME280;15376;48.540;9.268;2024-01-25T01:58:02;98690.94;;;7.70;100.00
5283;BME280;15376;48.540;9.268;2024-01-25T02:00:30;98659.63;;;7.56;100.00
5283;BME280;15376;48.540;9.268;2024-01-25T02:02:55;98650.28;;;7.52;100.00
5283;BME280;15376;48.540;9.268;2024-01-25T02:05:22;98683.97;;;7.69;100.00
5283;BME280;15376;48.540;9.268;2024-01-25T02:07:48;98681.19;;;7.70;100.00
5283;BME280;15376;48.540;9.268;2024-01-25T02:10:13;98673.41;;;7.69;100.00
5283;BME280;15376;48.540;9.268;2024-01-25T02:12:38;98683.56;;;7.74;100.00
5283;BME280;15376;48.540;9.268;2024-01-25T02:15:04;98665.88;;;7.64;100.00
5283;BME280;15376;48.540;9.268;2024-01-25T02:17:30;98679.69;;;7.78;100.00
5283;BME280;15376;48.540;9.268;2024-01-25T02:19:55;98698.78;;;7.81;100.00
5283;BME280;15376;48.540;9.268;2024-01-25T02:22:20;98668.38;;;7.66;100.00
5283;BME280;15376;48.540;9.268;2024-01-25T02:24:46;98673.13;;;7.72;100.00
5283;BME280;15376;48.540;9.268;2024-01-25T02:27:11;98672.00;;;7.65;100.00
5283;BME280;15376;48.540;9.268;2024-01-25T02:29:36;98660.03;;;7.61;100.00
5283;BME280;15376;48.540;9.268;2024-01-25T02:32:02;98662.25;;;7.65;100.00
5283;BME280;15376;48.540;9.268;2024-01-25T02:34:28;98686.53;;;7.90;100.00
5283;BME280;15376;48.540;9.268;2024-01-25T02:36:53;98652.38;;;7.67;100.00
5283;BME280;15376;48.540;9.268;2024-01-25T02:39:18;98656.53;;;7.60;100.00
5283;BME280;15376;48.540;9.268;2024-01-25T02:41:44;98694.28;;;7.72;100.00
5283;BME280;15376;48.540;9.268;2024-01-25T02:44:10;98664.78;;;7.57;100.00
5283;BME280;15376;48.540;9.268;2024-01-25T02:46:36;98682.03;;;7.71;100.00
5283;BME280;15376;48.540;9.268;2024-01-25T02:49:01;98677.84;;;7.59;100.00
5283;BME280;15376;48.540;9.268;2024-01-25T02:51:27;98700.69;;;7.69;100.00
5283;BME280;15376;48.540;9.268;2024-01-25T02:53:52;98699.00;;;7.68;100.00
5283;BME280;15376;48.540;9.268;2024-01-25T02:56:18;98701.38;;;7.72;100.00
5283;BME280;15376;48.540;9.268;2024-01-25T02:58:43;98705.53;;;7.64;100.00
5283;BME280;15376;48.540;9.268;2024-01-25T03:01:08;98657.75;;;7.37;100.00
5283;BME280;15376;48.540;9.268;2024-01-25T03:03:34;98688.13;;;7.52;100.00
5283;BME280;15376;48.540;9.268;2024-01-25T03:05:59;98677.22;;;7.36;100.00
5283;BME280;15376;48.540;9.268;2024-01-25T03:08:24;98688.66;;;7.46;100.00
5283;BME280;15376;48.540;9.268;2024-01-25T03:10:50;98685.31;;;7.44;100.00
5283;BME280;15376;48.540;9.268;2024-01-25T03:13:15;98693.94;;;7.46;100.00
5283;BME280;15376;48.540;9.268;2024-01-25T03:15:44;98694.91;;;7.45;100.00
5283;BME280;15376;48.540;9.268;2024-01-25T03:18:10;98700.72;;;7.39;100.00
5283;BME280;15376;48.540;9.268;2024-01-25T03:20:35;98704.34;;;7.38;100.00
5283;BME280;15376;48.540;9.268;2024-01-25T03:23:01;98712.53;;;7.35;100.00
5283;BME280;15376;48.540;9.268;2024-01-25T03:25:26;98706.97;;;7.38;100.00
5283;BME280;15376;48.540;9.268;2024-01-25T03:27:52;98716.13;;;7.34;100.00
5283;BME280;15376;48.540;9.268;2024-01-25T03:30:17;98701.34;;;7.22;100.00
5283;BME280;15376;48.540;9.268;2024-01-25T03:32:42;98715.88;;;7.37;100.00
5283;BME280;15376;48.540;9.268;2024-01-25T03:35:08;98712.66;;;7.33;100.00
5283;BME280;15376;48.540;9.268;2024-01-25T03:37:33;98716.75;;;7.47;100.00
5283;BME280;15376;48.540;9.268;2024-01-25T03:39:58;98687.91;;;7.34;100.00
5283;BME280;15376;48.540;9.268;2024-01-25T03:42:24;98717.72;;;7.46;100.00
5283;BME280;15376;48.540;9.268;2024-01-25T03:44:49;98702.78;;;7.35;100.00
5283;BME280;15376;48.540;9.268;2024-01-25T03:47:15;98718.00;;;7.43;100.00
5283;BME280;15376;48.540;9.268;2024-01-25T03:49:40;98727.59;;;7.44;100.00
5283;BME280;15376;48.540;9.268;2024-01-25T03:52:06;98725.66;;;7.46;100.00
5283;BME280;15376;48.540;9.268;2024-01-25T03:54:31;98728.56;;;7.43;100.00
5283;BME280;15376;48.540;9.268;2024-01-25T03:56:56;98728.13;;;7.38;100.00
5283;BME280;15376;48.540;9.268;2024-01-25T03:59:22;98727.53;;;7.34;100.00
5283;BME280;15376;48.540;9.268;2024-01-25T04:01:47;98717.38;;;7.30;100.00
5283;BME280;15376;48.540;9.268;2024-01-25T04:04:14;98743.72;;;7.41;100.00
5283;BME280;15376;48.540;9.268;2024-01-25T04:06:43;98762.78;;;7.45;100.00
5283;BME280;15376;48.540;9.268;2024-01-25T04:09:09;98766.97;;;7.47;100.00
5283;BME280;15376;48.540;9.268;2024-01-25T04:11:36;98680.44;;;6.88;100.00
5283;BME280;15376;48.540;9.268;2024-01-25T04:14:01;98761.50;;;7.39;100.00
5283;BME280;15376;48.540;9.268;2024-01-25T04:16:27;98733.75;;;7.24;100.00
5283;BME280;15376;48.540;9.268;2024-01-25T04:18:52;98743.53;;;7.33;100.00
5283;BME280;15376;48.540;9.268;2024-01-25T04:21:18;98753.56;;;7.39;100.00
5283;BME280;15376;48.540;9.268;2024-01-25T04:23:43;98768.19;;;7.43;100.00
5283;BME280;15376;48.540;9.268;2024-01-25T04:26:08;98744.25;;;7.35;100.00
5283;BME280;15376;48.540;9.268;2024-01-25T04:28:34;98754.53;;;7.38;100.00
5283;BME280;15376;48.540;9.268;2024-01-25T04:30:59;98734.63;;;7.34;100.00
5283;BME280;15376;48.540;9.268;2024-01-25T04:33:24;98765.03;;;7.49;100.00
5283;BME280;15376;48.540;9.268;2024-01-25T04:35:49;98766.28;;;7.45;100.00
5283;BME280;15376;48.540;9.268;2024-01-25T04:38:15;98766.13;;;7.47;100.00
5283;BME280;15376;48.540;9.268;2024-01-25T04:40:40;98779.34;;;7.47;100.00
5283;BME280;15376;48.540;9.268;2024-01-25T04:43:05;98773.50;;;7.43;100.00
5283;BME280;15376;48.540;9.268;2024-01-25T04:45:31;98780.59;;;7.43;100.00
5283;BME280;15376;48.540;9.268;2024-01-25T04:47:56;98778.50;;;7.46;100.00
5283;BME280;15376;48.540;9.268;2024-01-25T04:50:21;98776.00;;;7.45;100.00
5283;BME280;15376;48.540;9.268;2024-01-25T04:52:47;98781.41;;;7.43;100.00
5283;BME280;15376;48.540;9.268;2024-01-25T04:55:12;98782.13;;;7.45;100.00
5283;BME280;15376;48.540;9.268;2024-01-25T04:57:37;98788.25;;;7.46;100.00
5283;BME280;15376;48.540;9.268;2024-01-25T05:00:03;98772.34;;;7.36;100.00
5283;BME280;15376;48.540;9.268;2024-01-25T05:02:29;98785.75;;;7.44;100.00
5283;BME280;15376;48.540;9.268;2024-01-25T05:04:55;98780.41;;;7.34;100.00
5283;BME280;15376;48.540;9.268;2024-01-25T05:07:20;98768.94;;;7.24;100.00
5283;BME280;15376;48.540;9.268;2024-01-25T05:09:45;98797.66;;;7.39;100.00
5283;BME280;15376;48.540;9.268;2024-01-25T05:12:11;98795.03;;;7.39;100.00
5283;BME280;15376;48.540;9.268;2024-01-25T05:14:36;98767.50;;;7.20;100.00
5283;BME280;15376;48.540;9.268;2024-01-25T05:17:01;98791.47;;;7.28;100.00
5283;BME280;15376;48.540;9.268;2024-01-25T05:19:27;98804.03;;;7.36;100.00
5283;BME280;15376;48.540;9.268;2024-01-25T05:21:52;98797.59;;;7.29;100.00
5283;BME280;15376;48.540;9.268;2024-01-25T05:24:17;98808.38;;;7.37;100.00
5283;BME280;15376;48.540;9.268;2024-01-25T05:26:43;98803.78;;;7.39;100.00
5283;BME280;15376;48.540;9.268;2024-01-25T05:29:08;98804.25;;;7.44;100.00
5283;BME280;15376;48.540;9.268;2024-01-25T05:31:34;98793.03;;;7.31;100.00
5283;BME280;15376;48.540;9.268;2024-01-25T05:34:00;98769.88;;;7.14;100.00
5283;BME280;15376;48.540;9.268;2024-01-25T05:36:25;98821.31;;;7.40;100.00
5283;BME280;15376;48.540;9.268;2024-01-25T05:38:50;98802.06;;;7.28;100.00
5283;BME280;15376;48.540;9.268;2024-01-25T05:41:16;98807.13;;;7.41;100.00
5283;BME280;15376;48.540;9.268;2024-01-25T05:43:41;98803.09;;;7.37;100.00
5283;BME280;15376;48.540;9.268;2024-01-25T05:46:06;98791.34;;;7.30;100.00
5283;BME280;15376;48.540;9.268;2024-01-25T05:48:32;98819.66;;;7.39;100.00
5283;BME280;15376;48.540;9.268;2024-01-25T05:50:57;98811.06;;;7.26;100.00
5283;BME280;15376;48.540;9.268;2024-01-25T05:53:22;98790.88;;;7.15;100.00
5283;BME280;15376;48.540;9.268;2024-01-25T05:55:48;98816.09;;;7.29;100.00
5283;BME280;15376;48.540;9.268;2024-01-25T05:58:13;98762.75;;;6.93;100.00
5283;BME280;15376;48.540;9.268;2024-01-25T06:00:39;98825.69;;;7.30;100.00
5283;BME280;15376;48.540;9.268;2024-01-25T06:03:04;98790.91;;;7.04;100.00
5283;BME280;15376;48.540;9.268;2024-01-25T06:05:30;98813.97;;;7.23;100.00
5283;BME280;15376;48.540;9.268;2024-01-25T06:07:55;98814.50;;;7.17;100.00
5283;BME280;15376;48.540;9.268;2024-01-25T06:10:21;98819.09;;;7.15;100.00
5283;BME280;15376;48.540;9.268;2024-01-25T06:12:46;98808.81;;;7.00;100.00
5283;BME280;15376;48.540;9.268;2024-01-25T06:15:11;98809.78;;;6.99;100.00
5283;BME280;15376;48.540;9.268;2024-01-25T06:17:37;98807.28;;;6.98;100.00
5283;BME280;15376;48.540;9.268;2024-01-25T06:20:03;98782.97;;;6.83;100.00
5283;BME280;15376;48.540;9.268;2024-01-25T06:22:28;98799.59;;;6.95;100.00
5283;BME280;15376;48.540;9.268;2024-01-25T06:24:53;98793.94;;;6.79;100.00
5283;BME280;15376;48.540;9.268;2024-01-25T06:27:19;98804.63;;;6.77;100.00
5283;BME280;15376;48.540;9.268;2024-01-25T06:29:44;98816.75;;;6.80;100.00
5283;BME280;15376;48.540;9.268;2024-01-25T06:32:10;98820.06;;;6.82;100.00
5283;BME280;15376;48.540;9.268;2024-01-25T06:34:35;98820.59;;;6.76;100.00
5283;BME280;15376;48.540;9.268;2024-01-25T06:37:00;98798.59;;;6.54;100.00
5283;BME280;15376;48.540;9.268;2024-01-25T06:39:26;98819.31;;;6.59;100.00
5283;BME280;15376;48.540;9.268;2024-01-25T06:41:51;98791.84;;;6.29;100.00
5283;BME280;15376;48.540;9.268;2024-01-25T06:44:17;98826.47;;;6.36;100.00
5283;BME280;15376;48.540;9.268;2024-01-25T06:46:42;98807.69;;;6.18;100.00
5283;BME280;15376;48.540;9.268;2024-01-25T06:49:07;98842.91;;;6.28;100.00
5283;BME280;15376;48.540;9.268;2024-01-25T06:51:33;98845.31;;;6.31;100.00
5283;BME280;15376;48.540;9.268;2024-01-25T06:53:58;98844.59;;;6.29;100.00
5283;BME280;15376;48.540;9.268;2024-01-25T06:56:23;98853.72;;;6.25;100.00
5283;BME280;15376;48.540;9.268;2024-01-25T06:58:49;98856.81;;;6.19;100.00
5283;BME280;15376;48.540;9.268;2024-01-25T07:01:20;98868.81;;;6.12;100.00
5283;BME280;15376;48.540;9.268;2024-01-25T07:03:46;98855.63;;;6.12;100.00
5283;BME280;15376;48.540;9.268;2024-01-25T07:06:11;98847.97;;;6.09;100.00
5283;BME280;15376;48.540;9.268;2024-01-25T07:08:36;98834.53;;;6.01;100.00
5283;BME280;15376;48.540;9.268;2024-01-25T07:11:02;98826.66;;;5.90;100.00
5283;BME280;15376;48.540;9.268;2024-01-25T07:13:27;98862.00;;;5.98;100.00
5283;BME280;15376;48.540;9.268;2024-01-25T07:15:52;98850.34;;;5.79;100.00
5283;BME280;15376;48.540;9.268;2024-01-25T07:18:18;98812.47;;;5.46;100.00
5283;BME280;15376;48.540;9.268;2024-01-25T07:20:44;98818.94;;;5.53;100.00
5283;BME280;15376;48.540;9.268;2024-01-25T07:23:10;98812.84;;;5.53;100.00
5283;BME280;15376;48.540;9.268;2024-01-25T07:25:35;98855.47;;;5.69;100.00
5283;BME280;15376;48.540;9.268;2024-01-25T07:28:00;98861.09;;;5.64;100.00
5283;BME280;15376;48.540;9.268;2024-01-25T07:30:26;98852.25;;;5.54;100.00
5283;BME280;15376;48.540;9.268;2024-01-25T07:32:51;98826.69;;;5.32;100.00
5283;BME280;15376;48.540;9.268;2024-01-25T07:35:16;98787.88;;;5.12;100.00
5283;BME280;15376;48.540;9.268;2024-01-25T07:37:42;98848.63;;;5.44;100.00
5283;BME280;15376;48.540;9.268;2024-01-25T07:40:08;98800.94;;;5.25;100.00
5283;BME280;15376;48.540;9.268;2024-01-25T07:42:34;98848.66;;;5.55;100.00
5283;BME280;15376;48.540;9.268;2024-01-25T07:44:59;98850.09;;;5.70;100.00
5283;BME280;15376;48.540;9.268;2024-01-25T07:47:24;98838.09;;;5.66;100.00
5283;BME280;15376;48.540;9.268;2024-01-25T07:49:50;98847.94;;;5.64;100.00
5283;BME280;15376;48.540;9.268;2024-01-25T07:52:15;98842.41;;;5.67;100.00
5283;BME280;15376;48.540;9.268;2024-01-25T07:54:40;98850.81;;;5.73;100.00
5283;BME280;15376;48.540;9.268;2024-01-25T07:57:06;98806.25;;;5.58;100.00
5283;BME280;15376;48.540;9.268;2024-01-25T07:59:31;98841.13;;;5.84;100.00
5283;BME280;15376;48.540;9.268;2024-01-25T08:01:56;98830.84;;;5.92;100.00
5283;BME280;15376;48.540;9.268;2024-01-25T08:04:22;98826.63;;;6.01;100.00
5283;BME280;15376;48.540;9.268;2024-01-25T08:06:47;98848.91;;;6.19;100.00
5283;BME280;15376;48.540;9.268;2024-01-25T08:09:13;98846.28;;;6.19;100.00
5283;BME280;15376;48.540;9.268;2024-01-25T08:11:39;98822.66;;;6.07;100.00
5283;BME280;15376;48.540;9.268;2024-01-25T08:14:04;98823.97;;;6.12;100.00
5283;BME280;15376;48.540;9.268;2024-01-25T08:16:30;98820.50;;;6.12;100.00
5283;BME280;15376;48.540;9.268;2024-01-25T08:18:57;98860.53;;;6.39;100.00
5283;BME280;15376;48.540;9.268;2024-01-25T08:21:24;98862.53;;;6.47;100.00
5283;BME280;15376;48.540;9.268;2024-01-25T08:23:49;98833.31;;;6.39;100.00
5283;BME280;15376;48.540;9.268;2024-01-25T08:26:15;98852.44;;;6.52;100.00
5283;BME280;15376;48.540;9.268;2024-01-25T08:28:40;98850.28;;;6.57;100.00
5283;BME280;15376;48.540;9.268;2024-01-25T08:31:06;98846.56;;;6.59;100.00
5283;BME280;15376;48.540;9.268;2024-01-25T08:33:32;98844.97;;;6.68;100.00
5283;BME280;15376;48.540;9.268;2024-01-25T08:35:58;98856.19;;;6.81;100.00
5283;BME280;15376;48.540;9.268;2024-01-25T08:38:23;98831.28;;;6.74;100.00
5283;BME280;15376;48.540;9.268;2024-01-25T08:40:49;98851.00;;;6.91;100.00
5283;BME280;15376;48.540;9.268;2024-01-25T08:43:14;98833.97;;;6.84;100.00
5283;BME280;15376;48.540;9.268;2024-01-25T08:45:39;98839.13;;;6.85;100.00
5283;BME280;15376;48.540;9.268;2024-01-25T08:48:05;98847.00;;;6.96;100.00
5283;BME280;15376;48.540;9.268;2024-01-25T08:50:31;98852.28;;;6.96;100.00
5283;BME280;15376;48.540;9.268;2024-01-25T08:52:56;98866.19;;;7.10;100.00
5283;BME280;15376;48.540;9.268;2024-01-25T08:55:22;98806.69;;;6.74;100.00
5283;BME280;15376;48.540;9.268;2024-01-25T08:57:48;98870.41;;;7.22;100.00
5283;BME280;15376;48.540;9.268;2024-01-25T09:00:13;98888.66;;;7.25;100.00
5283;BME280;15376;48.540;9.268;2024-01-25T09:02:40;98893.09;;;7.24;100.00
5283;BME280;15376;48.540;9.268;2024-01-25T09:05:06;98878.47;;;7.20;100.00
5283;BME280;15376;48.540;9.268;2024-01-25T09:07:32;98904.25;;;7.28;100.00
5283;BME280;15376;48.540;9.268;2024-01-25T09:09:57;98908.06;;;7.35;100.00
5283;BME280;15376;48.540;9.268;2024-01-25T09:12:23;98892.22;;;7.35;100.00
5283;BME280;15376;48.540;9.268;2024-01-25T09:14:48;98895.84;;;7.55;100.00
5283;BME280;15376;48.540;9.268;2024-01-25T09:17:14;98834.44;;;8.12;100.00
5283;BME280;15376;48.540;9.268;2024-01-25T09:19:40;98860.69;;;9.98;100.00
5283;BME280;15376;48.540;9.268;2024-01-25T09:22:07;98852.22;;;11.39;100.00
5283;BME280;15376;48.540;9.268;2024-01-25T09:24:33;98883.06;;;12.61;98.17
5283;BME280;15376;48.540;9.268;2024-01-25T09:27:01;98866.22;;;13.51;92.69
5283;BME280;15376;48.540;9.268;2024-01-25T09:29:27;98885.84;;;14.85;85.18
5283;BME280;15376;48.540;9.268;2024-01-25T09:31:53;98887.13;;;15.20;79.03
5283;BME280;15376;48.540;9.268;2024-01-25T09:34:19;98883.56;;;15.74;75.04
5283;BME280;15376;48.540;9.268;2024-01-25T09:36:45;98880.19;;;16.53;72.51
5283;BME280;15376;48.540;9.268;2024-01-25T09:39:12;98904.00;;;17.28;67.19
5283;BME280;15376;48.540;9.268;2024-01-25T09:41:40;98900.19;;;16.36;64.13
5283;BME280;15376;48.540;9.268;2024-01-25T09:44:08;98908.69;;;16.40;65.50
5283;BME280;15376;48.540;9.268;2024-01-25T09:46:33;98918.19;;;16.13;65.25
5283;BME280;15376;48.540;9.268;2024-01-25T09:49:00;98901.66;;;15.26;66.15
5283;BME280;15376;48.540;9.268;2024-01-25T09:51:26;98908.94;;;15.63;68.22
5283;BME280;15376;48.540;9.268;2024-01-25T09:53:53;98908.38;;;17.93;64.80
5283;BME280;15376;48.540;9.268;2024-01-25T09:56:20;98875.13;;;17.09;60.42
5283;BME280;15376;48.540;9.268;2024-01-25T09:58:46;98888.34;;;16.45;61.41
5283;BME280;15376;48.540;9.268;2024-01-25T10:01:14;98880.75;;;16.49;60.85
5283;BME280;15376;48.540;9.268;2024-01-25T10:03:44;98869.53;;;15.72;64.03
5283;BME280;15376;48.540;9.268;2024-01-25T10:06:11;98903.19;;;15.89;63.94
5283;BME280;15376;48.540;9.268;2024-01-25T10:08:37;98905.34;;;15.02;67.64
5283;BME280;15376;48.540;9.268;2024-01-25T10:11:03;98909.72;;;14.64;67.89
5283;BME280;15376;48.540;9.268;2024-01-25T10:13:29;98890.53;;;13.97;67.98
5283;BME280;15376;48.540;9.268;2024-01-25T10:15:55;98889.97;;;12.88;71.96
5283;BME280;15376;48.540;9.268;2024-01-25T10:18:25;98903.75;;;11.99;75.36
5283;BME280;15376;48.540;9.268;2024-01-25T10:20:53;98917.97;;;11.46;79.64
5283;BME280;15376;48.540;9.268;2024-01-25T10:23:18;98914.47;;;11.28;81.03
5283;BME280;15376;48.540;9.268;2024-01-25T10:25:43;98921.13;;;10.96;83.32
5283;BME280;15376;48.540;9.268;2024-01-25T10:28:09;98875.81;;;10.53;85.92
5283;BME280;15376;48.540;9.268;2024-01-25T10:30:36;98914.38;;;10.57;88.38
5283;BME280;15376;48.540;9.268;2024-01-25T10:33:02;98884.94;;;10.41;89.02
5283;BME280;15376;48.540;9.268;2024-01-25T10:35:31;98896.91;;;10.54;90.09
5283;BME280;15376;48.540;9.268;2024-01-25T10:37:56;98903.41;;;10.42;90.99
5283;BME280;15376;48.540;9.268;2024-01-25T10:40:22;98846.22;;;9.74;92.33
5283;BME280;15376;48.540;9.268;2024-01-25T10:42:48;98883.13;;;10.04;92.25
5283;BME280;15376;48.540;9.268;2024-01-25T10:45:14;98893.28;;;10.18;92.17
5283;BME280;15376;48.540;9.268;2024-01-25T10:47:40;98889.94;;;10.16;92.71
5283;BME280;15376;48.540;9.268;2024-01-25T10:50:11;98885.50;;;10.44;94.62
5283;BME280;15376;48.540;9.268;2024-01-25T10:52:37;98859.69;;;10.64;93.09
5283;BME280;15376;48.540;9.268;2024-01-25T10:55:05;98873.59;;;10.93;90.56
5283;BME280;15376;48.540;9.268;2024-01-25T10:57:37;98870.09;;;10.75;90.65
5283;BME280;15376;48.540;9.268;2024-01-25T11:00:06;98850.97;;;10.44;90.23
5283;BME280;15376;48.540;9.268;2024-01-25T11:02:34;98855.53;;;10.52;90.47
5283;BME280;15376;48.540;9.268;2024-01-25T11:05:00;98845.38;;;10.47;92.18
5283;BME280;15376;48.540;9.268;2024-01-25T11:07:26;98861.59;;;10.89;90.29
5283;BME280;15376;48.540;9.268;2024-01-25T11:09:51;98875.34;;;11.02;90.25
5283;BME280;15376;48.540;9.268;2024-01-25T11:12:18;98845.91;;;11.22;90.80
5283;BME280;15376;48.540;9.268;2024-01-25T11:14:43;98847.59;;;11.23;88.98
5283;BME280;15376;48.540;9.268;2024-01-25T11:17:22;98819.31;;;10.78;87.95
5283;BME280;15376;48.540;9.268;2024-01-25T11:19:50;98824.84;;;10.67;88.47
5283;BME280;15376;48.540;9.268;2024-01-25T11:22:16;98831.38;;;10.73;88.58
5283;BME280;15376;48.540;9.268;2024-01-25T11:24:41;98834.94;;;10.63;89.77
5283;BME280;15376;48.540;9.268;2024-01-25T11:27:09;98823.75;;;10.60;90.07
5283;BME280;15376;48.540;9.268;2024-01-25T11:29:35;98802.06;;;10.19;91.56
5283;BME280;15376;48.540;9.268;2024-01-25T11:32:03;98809.44;;;9.88;93.57
5283;BME280;15376;48.540;9.268;2024-01-25T11:34:29;98814.38;;;9.74;94.04
5283;BME280;15376;48.540;9.268;2024-01-25T11:36:56;98826.97;;;9.62;94.59
5283;BME280;15376;48.540;9.268;2024-01-25T11:39:23;98825.44;;;9.69;95.08
5283;BME280;15376;48.540;9.268;2024-01-25T11:41:51;98811.22;;;9.60;96.26
5283;BME280;15376;48.540;9.268;2024-01-25T11:44:16;98782.72;;;9.62;95.02
5283;BME280;15376;48.540;9.268;2024-01-25T11:46:42;98795.34;;;9.88;94.14
5283;BME280;15376;48.540;9.268;2024-01-25T11:49:07;98808.31;;;10.18;92.44
5283;BME280;15376;48.540;9.268;2024-01-25T11:51:33;98788.34;;;10.24;91.14
5283;BME280;15376;48.540;9.268;2024-01-25T11:53:58;98793.56;;;10.61;91.12
5283;BME280;15376;48.540;9.268;2024-01-25T11:56:36;98791.28;;;10.66;90.39
5283;BME280;15376;48.540;9.268;2024-01-25T11:59:04;98778.22;;;10.90;87.59
5283;BME280;15376;48.540;9.268;2024-01-25T12:01:30;98803.38;;;11.22;86.88
5283;BME280;15376;48.540;9.268;2024-01-25T12:03:55;98764.28;;;11.14;86.88
5283;BME280;15376;48.540;9.268;2024-01-25T12:06:21;98770.63;;;11.21;85.45
5283;BME280;15376;48.540;9.268;2024-01-25T12:08:46;98795.53;;;11.38;84.79
5283;BME280;15376;48.540;9.268;2024-01-25T12:11:16;98798.56;;;11.43;85.29
5283;BME280;15376;48.540;9.268;2024-01-25T12:13:44;98799.41;;;11.26;85.38
5283;BME280;15376;48.540;9.268;2024-01-25T12:16:10;98792.75;;;11.22;84.87
5283;BME280;15376;48.540;9.268;2024-01-25T12:18:37;98793.94;;;11.27;85.11
5283;BME280;15376;48.540;9.268;2024-01-25T12:21:04;98780.88;;;11.34;84.58
5283;BME280;15376;48.540;9.268;2024-01-25T12:23:39;98785.28;;;10.99;84.53
5283;BME280;15376;48.540;9.268;2024-01-25T12:26:07;98783.44;;;10.82;86.12
5283;BME280;15376;48.540;9.268;2024-01-25T12:28:33;98758.00;;;10.44;87.51
5283;BME280;15376;48.540;9.268;2024-01-25T12:31:03;98775.22;;;10.40;88.21
5283;BME280;15376;48.540;9.268;2024-01-25T12:33:29;98749.38;;;10.15;89.20
5283;BME280;15376;48.540;9.268;2024-01-25T12:35:55;98777.34;;;10.09;89.49
5283;BME280;15376;48.540;9.268;2024-01-25T12:38:21;98754.28;;;9.92;90.81
5283;BME280;15376;48.540;9.268;2024-01-25T12:40:48;98756.78;;;9.93;91.36
5283;BME280;15376;48.540;9.268;2024-01-25T12:43:17;98757.63;;;10.21;91.21
5283;BME280;15376;48.540;9.268;2024-01-25T12:45:42;98742.38;;;10.23;90.58
5283;BME280;15376;48.540;9.268;2024-01-25T12:48:08;98752.16;;;10.41;90.23
5283;BME280;15376;48.540;9.268;2024-01-25T12:50:35;98735.25;;;10.42;88.32
5283;BME280;15376;48.540;9.268;2024-01-25T12:53:01;98741.09;;;10.63;87.79
5283;BME280;15376;48.540;9.268;2024-01-25T12:55:28;98745.88;;;10.42;87.57
5283;BME280;15376;48.540;9.268;2024-01-25T12:57:53;98753.78;;;10.33;87.20
5283;BME280;15376;48.540;9.268;2024-01-25T13:00:19;98734.28;;;10.25;87.79
5283;BME280;15376;48.540;9.268;2024-01-25T13:02:44;98745.03;;;10.41;86.92
5283;BME280;15376;48.540;9.268;2024-01-25T13:05:09;98735.94;;;10.44;86.40